NY72 weather

Poolsbrook Aerodrome
Manlius, New York, United States

Public forecast

Using degrees Fahrenheit for public forecast. Weather courtesy of forecast.io.

METAR (pilot weather report)

Closest report is Syracuse Hancock International Airport, 7.7 nm (14.3 km) WNW. Retrieved 2019/07/23 22:54 UTC (26 minutes ago):

KSYR 232254Z 31009KT 10SM FEW055 BKN100 BKN200 24/12 A2991 RMK AO2 SLP123 T02440122

TAF (pilot weather forecast)

Closest forecast is Syracuse Hancock International Airport, 7.7 nm (14.3 km) WNW. Retrieved 2019/07/23 18:36 UTC (5 hours ago):

TAF KSYR 231733Z 2318/2418 31008KT P6SM FEW060 SCT250 FM240000 VRB03KT P6SM FEW250 FM241700 32006KT P6SM FEW070